sensor_id;sensor_type;location;lat;lon;timestamp;P1;durP1;ratioP1;P2;durP2;ratioP2
8187;SDS011;4135;49.184;9.722;2022-07-23T00:01:13;12.32;;;8.23;;
8187;SDS011;4135;49.184;9.722;2022-07-23T00:03:42;12.63;;;9.20;;
8187;SDS011;4135;49.184;9.722;2022-07-23T00:06:12;9.35;;;7.60;;
8187;SDS011;4135;49.184;9.722;2022-07-23T00:08:42;12.10;;;8.07;;
8187;SDS011;4135;49.184;9.722;2022-07-23T00:11:11;11.73;;;9.15;;
8187;SDS011;4135;49.184;9.722;2022-07-23T00:13:41;12.02;;;7.80;;
8187;SDS011;4135;49.184;9.722;2022-07-23T00:16:11;10.30;;;8.02;;
8187;SDS011;4135;49.184;9.722;2022-07-23T00:18:40;10.35;;;8.40;;
8187;SDS011;4135;49.184;9.722;2022-07-23T00:21:10;12.23;;;8.73;;
8187;SDS011;4135;49.184;9.722;2022-07-23T00:23:39;9.30;;;7.95;;
8187;SDS011;4135;49.184;9.722;2022-07-23T00:26:09;11.57;;;7.53;;
8187;SDS011;4135;49.184;9.722;2022-07-23T00:28:38;12.55;;;8.05;;
8187;SDS011;4135;49.184;9.722;2022-07-23T00:31:08;14.27;;;8.68;;
8187;SDS011;4135;49.184;9.722;2022-07-23T00:33:37;10.15;;;7.97;;
8187;SDS011;4135;49.184;9.722;2022-07-23T00:36:07;12.23;;;8.07;;
8187;SDS011;4135;49.184;9.722;2022-07-23T00:38:37;9.98;;;7.45;;
8187;SDS011;4135;49.184;9.722;2022-07-23T00:41:06;12.27;;;9.10;;
8187;SDS011;4135;49.184;9.722;2022-07-23T00:43:36;13.25;;;8.88;;
8187;SDS011;4135;49.184;9.722;2022-07-23T00:46:05;10.18;;;8.40;;
8187;SDS011;4135;49.184;9.722;2022-07-23T00:48:35;10.02;;;7.47;;
8187;SDS011;4135;49.184;9.722;2022-07-23T00:51:05;10.60;;;7.95;;
8187;SDS011;4135;49.184;9.722;2022-07-23T00:53:34;8.93;;;6.93;;
8187;SDS011;4135;49.184;9.722;2022-07-23T00:56:04;11.98;;;7.55;;
8187;SDS011;4135;49.184;9.722;2022-07-23T00:58:35;9.75;;;7.20;;
8187;SDS011;4135;49.184;9.722;2022-07-23T01:01:04;8.88;;;7.20;;
8187;SDS011;4135;49.184;9.722;2022-07-23T01:03:34;9.00;;;7.10;;
8187;SDS011;4135;49.184;9.722;2022-07-23T01:06:04;12.38;;;6.85;;
8187;SDS011;4135;49.184;9.722;2022-07-23T01:08:33;10.48;;;6.35;;
8187;SDS011;4135;49.184;9.722;2022-07-23T01:11:03;7.95;;;6.07;;
8187;SDS011;4135;49.184;9.722;2022-07-23T01:13:33;6.28;;;5.60;;
8187;SDS011;4135;49.184;9.722;2022-07-23T01:16:03;8.13;;;5.55;;
8187;SDS011;4135;49.184;9.722;2022-07-23T01:18:33;8.45;;;6.28;;
8187;SDS011;4135;49.184;9.722;2022-07-23T01:21:02;8.02;;;5.63;;
8187;SDS011;4135;49.184;9.722;2022-07-23T01:23:32;6.88;;;5.93;;
8187;SDS011;4135;49.184;9.722;2022-07-23T01:26:01;6.57;;;5.63;;
8187;SDS011;4135;49.184;9.722;2022-07-23T01:28:31;9.68;;;5.45;;
8187;SDS011;4135;49.184;9.722;2022-07-23T01:31:00;7.40;;;5.50;;
8187;SDS011;4135;49.184;9.722;2022-07-23T01:33:30;7.88;;;5.13;;
8187;SDS011;4135;49.184;9.722;2022-07-23T01:35:59;9.77;;;4.97;;
8187;SDS011;4135;49.184;9.722;2022-07-23T01:38:29;6.45;;;5.50;;
8187;SDS011;4135;49.184;9.722;2022-07-23T01:40:58;5.78;;;5.20;;
8187;SDS011;4135;49.184;9.722;2022-07-23T01:43:28;8.07;;;4.72;;
8187;SDS011;4135;49.184;9.722;2022-07-23T01:45:57;6.50;;;5.60;;
8187;SDS011;4135;49.184;9.722;2022-07-23T01:48:27;6.05;;;5.70;;
8187;SDS011;4135;49.184;9.722;2022-07-23T01:50:56;5.60;;;5.32;;
8187;SDS011;4135;49.184;9.722;2022-07-23T01:53:26;7.05;;;5.13;;
8187;SDS011;4135;49.184;9.722;2022-07-23T01:55:56;11.38;;;5.72;;
8187;SDS011;4135;49.184;9.722;2022-07-23T01:58:26;9.32;;;5.60;;
8187;SDS011;4135;49.184;9.722;2022-07-23T02:00:56;7.30;;;5.72;;
8187;SDS011;4135;49.184;9.722;2022-07-23T02:03:25;7.63;;;6.00;;
8187;SDS011;4135;49.184;9.722;2022-07-23T02:05:55;9.45;;;6.00;;
8187;SDS011;4135;49.184;9.722;2022-07-23T02:08:25;8.32;;;6.40;;
8187;SDS011;4135;49.184;9.722;2022-07-23T02:10:54;9.88;;;6.40;;
8187;SDS011;4135;49.184;9.722;2022-07-23T02:13:24;6.65;;;5.07;;
8187;SDS011;4135;49.184;9.722;2022-07-23T02:15:53;8.05;;;5.25;;
8187;SDS011;4135;49.184;9.722;2022-07-23T02:18:23;7.88;;;5.38;;
8187;SDS011;4135;49.184;9.722;2022-07-23T02:20:52;5.93;;;4.88;;
8187;SDS011;4135;49.184;9.722;2022-07-23T02:23:22;8.00;;;5.90;;
8187;SDS011;4135;49.184;9.722;2022-07-23T02:25:51;10.02;;;5.70;;
8187;SDS011;4135;49.184;9.722;2022-07-23T02:28:21;6.45;;;5.43;;
8187;SDS011;4135;49.184;9.722;2022-07-23T02:30:50;8.60;;;5.68;;
8187;SDS011;4135;49.184;9.722;2022-07-23T02:33:20;7.93;;;5.60;;
8187;SDS011;4135;49.184;9.722;2022-07-23T02:35:49;8.80;;;5.53;;
8187;SDS011;4135;49.184;9.722;2022-07-23T02:38:19;7.93;;;5.72;;
8187;SDS011;4135;49.184;9.722;2022-07-23T02:40:48;6.28;;;5.72;;
8187;SDS011;4135;49.184;9.722;2022-07-23T02:43:18;6.78;;;5.75;;
8187;SDS011;4135;49.184;9.722;2022-07-23T02:45:47;7.47;;;5.05;;
8187;SDS011;4135;49.184;9.722;2022-07-23T02:48:17;8.15;;;6.00;;
8187;SDS011;4135;49.184;9.722;2022-07-23T02:50:46;9.55;;;5.65;;
8187;SDS011;4135;49.184;9.722;2022-07-23T02:53:16;8.38;;;5.60;;
8187;SDS011;4135;49.184;9.722;2022-07-23T02:55:45;6.63;;;4.85;;
8187;SDS011;4135;49.184;9.722;2022-07-23T02:58:15;7.50;;;5.47;;
8187;SDS011;4135;49.184;9.722;2022-07-23T03:00:44;9.73;;;6.45;;
8187;SDS011;4135;49.184;9.722;2022-07-23T03:03:14;6.63;;;5.43;;
8187;SDS011;4135;49.184;9.722;2022-07-23T03:05:44;7.38;;;5.07;;
8187;SDS011;4135;49.184;9.722;2022-07-23T03:08:13;6.53;;;5.03;;
8187;SDS011;4135;49.184;9.722;2022-07-23T03:10:43;6.15;;;4.72;;
8187;SDS011;4135;49.184;9.722;2022-07-23T03:13:12;7.50;;;5.35;;
8187;SDS011;4135;49.184;9.722;2022-07-23T03:15:42;7.20;;;5.32;;
8187;SDS011;4135;49.184;9.722;2022-07-23T03:18:11;11.20;;;6.15;;
8187;SDS011;4135;49.184;9.722;2022-07-23T03:20:41;7.78;;;5.72;;
8187;SDS011;4135;49.184;9.722;2022-07-23T03:23:10;6.28;;;4.97;;
8187;SDS011;4135;49.184;9.722;2022-07-23T03:25:40;7.72;;;5.30;;
8187;SDS011;4135;49.184;9.722;2022-07-23T03:28:10;13.00;;;5.60;;
8187;SDS011;4135;49.184;9.722;2022-07-23T03:30:39;8.88;;;5.57;;
8187;SDS011;4135;49.184;9.722;2022-07-23T03:33:09;6.40;;;5.75;;
8187;SDS011;4135;49.184;9.722;2022-07-23T03:35:38;8.93;;;5.55;;
8187;SDS011;4135;49.184;9.722;2022-07-23T03:38:08;7.18;;;5.78;;
8187;SDS011;4135;49.184;9.722;2022-07-23T03:40:37;7.90;;;5.00;;
8187;SDS011;4135;49.184;9.722;2022-07-23T03:43:07;6.57;;;4.82;;
8187;SDS011;4135;49.184;9.722;2022-07-23T03:45:36;7.20;;;5.60;;
8187;SDS011;4135;49.184;9.722;2022-07-23T03:48:06;7.95;;;5.55;;
8187;SDS011;4135;49.184;9.722;2022-07-23T03:50:35;6.90;;;5.00;;
8187;SDS011;4135;49.184;9.722;2022-07-23T03:53:06;9.50;;;5.50;;
8187;SDS011;4135;49.184;9.722;2022-07-23T03:55:35;7.90;;;5.38;;
8187;SDS011;4135;49.184;9.722;2022-07-23T03:58:05;6.47;;;5.45;;
8187;SDS011;4135;49.184;9.722;2022-07-23T04:00:34;8.55;;;5.55;;
8187;SDS011;4135;49.184;9.722;2022-07-23T04:03:04;8.70;;;5.88;;
8187;SDS011;4135;49.184;9.722;2022-07-23T04:05:34;6.65;;;4.97;;
8187;SDS011;4135;49.184;9.722;2022-07-23T04:08:03;7.35;;;4.80;;
8187;SDS011;4135;49.184;9.722;2022-07-23T04:10:33;6.93;;;4.97;;
8187;SDS011;4135;49.184;9.722;2022-07-23T04:13:02;7.65;;;5.38;;
8187;SDS011;4135;49.184;9.722;2022-07-23T04:15:32;8.55;;;5.22;;
8187;SDS011;4135;49.184;9.722;2022-07-23T04:18:01;6.68;;;4.88;;
8187;SDS011;4135;49.184;9.722;2022-07-23T04:20:31;6.80;;;4.68;;
8187;SDS011;4135;49.184;9.722;2022-07-23T04:23:00;7.13;;;4.93;;
8187;SDS011;4135;49.184;9.722;2022-07-23T04:25:30;6.82;;;5.15;;
8187;SDS011;4135;49.184;9.722;2022-07-23T04:28:00;7.68;;;4.72;;
8187;SDS011;4135;49.184;9.722;2022-07-23T04:30:29;6.82;;;4.85;;
8187;SDS011;4135;49.184;9.722;2022-07-23T04:32:59;6.50;;;5.30;;
8187;SDS011;4135;49.184;9.722;2022-07-23T04:35:29;9.50;;;5.05;;
8187;SDS011;4135;49.184;9.722;2022-07-23T04:37:58;7.50;;;5.30;;
8187;SDS011;4135;49.184;9.722;2022-07-23T04:40:28;7.22;;;4.57;;
8187;SDS011;4135;49.184;9.722;2022-07-23T04:42:58;7.25;;;5.15;;
8187;SDS011;4135;49.184;9.722;2022-07-23T04:45:27;6.40;;;5.13;;
8187;SDS011;4135;49.184;9.722;2022-07-23T04:47:57;7.18;;;5.20;;
8187;SDS011;4135;49.184;9.722;2022-07-23T04:50:26;10.10;;;5.45;;
8187;SDS011;4135;49.184;9.722;2022-07-23T04:52:56;9.75;;;5.75;;
8187;SDS011;4135;49.184;9.722;2022-07-23T04:55:25;7.15;;;5.15;;
8187;SDS011;4135;49.184;9.722;2022-07-23T04:57:55;6.60;;;5.28;;
8187;SDS011;4135;49.184;9.722;2022-07-23T05:00:24;6.05;;;4.93;;
8187;SDS011;4135;49.184;9.722;2022-07-23T05:02:54;11.02;;;5.80;;
8187;SDS011;4135;49.184;9.722;2022-07-23T05:05:23;9.68;;;5.45;;
8187;SDS011;4135;49.184;9.722;2022-07-23T05:07:53;6.15;;;5.47;;
8187;SDS011;4135;49.184;9.722;2022-07-23T05:10:23;7.80;;;5.80;;
8187;SDS011;4135;49.184;9.722;2022-07-23T05:12:52;7.57;;;5.68;;
8187;SDS011;4135;49.184;9.722;2022-07-23T05:15:22;9.30;;;5.47;;
8187;SDS011;4135;49.184;9.722;2022-07-23T05:17:51;9.20;;;5.82;;
8187;SDS011;4135;49.184;9.722;2022-07-23T05:20:21;7.70;;;4.72;;
8187;SDS011;4135;49.184;9.722;2022-07-23T05:22:50;7.25;;;5.57;;
8187;SDS011;4135;49.184;9.722;2022-07-23T05:25:20;6.38;;;5.25;;
8187;SDS011;4135;49.184;9.722;2022-07-23T05:27:49;7.18;;;5.38;;
8187;SDS011;4135;49.184;9.722;2022-07-23T05:30:19;7.28;;;5.15;;
8187;SDS011;4135;49.184;9.722;2022-07-23T05:32:49;31.08;;;7.05;;
8187;SDS011;4135;49.184;9.722;2022-07-23T05:35:19;10.52;;;5.97;;
8187;SDS011;4135;49.184;9.722;2022-07-23T05:37:48;9.73;;;6.38;;
8187;SDS011;4135;49.184;9.722;2022-07-23T05:40:18;6.88;;;5.40;;
8187;SDS011;4135;49.184;9.722;2022-07-23T05:42:47;8.63;;;5.97;;
8187;SDS011;4135;49.184;9.722;2022-07-23T05:45:17;8.98;;;5.78;;
8187;SDS011;4135;49.184;9.722;2022-07-23T05:47:47;7.95;;;5.68;;
8187;SDS011;4135;49.184;9.722;2022-07-23T05:50:17;8.50;;;5.80;;
8187;SDS011;4135;49.184;9.722;2022-07-23T05:52:47;13.07;;;7.00;;
8187;SDS011;4135;49.184;9.722;2022-07-23T05:55:16;7.25;;;6.00;;
8187;SDS011;4135;49.184;9.722;2022-07-23T05:57:46;9.80;;;6.35;;
8187;SDS011;4135;49.184;9.722;2022-07-23T06:00:15;9.63;;;6.85;;
8187;SDS011;4135;49.184;9.722;2022-07-23T06:02:45;9.07;;;6.40;;
8187;SDS011;4135;49.184;9.722;2022-07-23T06:05:14;7.80;;;6.22;;
8187;SDS011;4135;49.184;9.722;2022-07-23T06:07:44;8.48;;;6.10;;
8187;SDS011;4135;49.184;9.722;2022-07-23T06:10:14;8.23;;;6.00;;
8187;SDS011;4135;49.184;9.722;2022-07-23T06:12:43;8.55;;;6.60;;
8187;SDS011;4135;49.184;9.722;2022-07-23T06:15:13;9.35;;;6.90;;
8187;SDS011;4135;49.184;9.722;2022-07-23T06:17:42;9.43;;;6.20;;
8187;SDS011;4135;49.184;9.722;2022-07-23T06:20:12;8.60;;;7.45;;
8187;SDS011;4135;49.184;9.722;2022-07-23T06:22:41;13.02;;;7.57;;
8187;SDS011;4135;49.184;9.722;2022-07-23T06:25:11;8.15;;;7.40;;
8187;SDS011;4135;49.184;9.722;2022-07-23T06:27:40;13.65;;;7.75;;
8187;SDS011;4135;49.184;9.722;2022-07-23T06:30:10;10.10;;;8.18;;
8187;SDS011;4135;49.184;9.722;2022-07-23T06:32:40;12.30;;;7.45;;
8187;SDS011;4135;49.184;9.722;2022-07-23T06:35:10;9.88;;;7.75;;
8187;SDS011;4135;49.184;9.722;2022-07-23T06:37:39;12.18;;;7.70;;
8187;SDS011;4135;49.184;9.722;2022-07-23T06:40:09;12.05;;;7.72;;
8187;SDS011;4135;49.184;9.722;2022-07-23T06:42:39;8.88;;;7.20;;
8187;SDS011;4135;49.184;9.722;2022-07-23T06:45:09;10.55;;;7.95;;
8187;SDS011;4135;49.184;9.722;2022-07-23T06:47:38;12.15;;;8.82;;
8187;SDS011;4135;49.184;9.722;2022-07-23T06:50:09;10.23;;;7.70;;
8187;SDS011;4135;49.184;9.722;2022-07-23T06:52:39;9.55;;;7.45;;
8187;SDS011;4135;49.184;9.722;2022-07-23T06:55:09;10.10;;;7.97;;
8187;SDS011;4135;49.184;9.722;2022-07-23T06:57:39;13.02;;;8.95;;
8187;SDS011;4135;49.184;9.722;2022-07-23T07:00:08;9.93;;;8.52;;
8187;SDS011;4135;49.184;9.722;2022-07-23T07:02:38;9.98;;;7.80;;
8187;SDS011;4135;49.184;9.722;2022-07-23T07:05:08;10.15;;;7.07;;
8187;SDS011;4135;49.184;9.722;2022-07-23T07:07:38;12.32;;;8.75;;
8187;SDS011;4135;49.184;9.722;2022-07-23T07:10:07;11.43;;;8.07;;
8187;SDS011;4135;49.184;9.722;2022-07-23T07:12:37;14.63;;;8.35;;
8187;SDS011;4135;49.184;9.722;2022-07-23T07:15:07;11.23;;;8.10;;
8187;SDS011;4135;49.184;9.722;2022-07-23T07:17:37;10.15;;;8.98;;
8187;SDS011;4135;49.184;9.722;2022-07-23T07:20:06;12.02;;;9.13;;
8187;SDS011;4135;49.184;9.722;2022-07-23T07:22:36;12.43;;;7.88;;
8187;SDS011;4135;49.184;9.722;2022-07-23T07:25:06;13.80;;;7.93;;
8187;SDS011;4135;49.184;9.722;2022-07-23T07:27:36;10.85;;;8.40;;
8187;SDS011;4135;49.184;9.722;2022-07-23T07:30:06;11.60;;;7.75;;
8187;SDS011;4135;49.184;9.722;2022-07-23T07:32:36;10.30;;;8.10;;
8187;SDS011;4135;49.184;9.722;2022-07-23T07:35:06;11.55;;;7.72;;
8187;SDS011;4135;49.184;9.722;2022-07-23T07:37:36;11.10;;;7.75;;
8187;SDS011;4135;49.184;9.722;2022-07-23T07:40:06;12.05;;;8.15;;
8187;SDS011;4135;49.184;9.722;2022-07-23T07:42:49;15.75;;;8.07;;
8187;SDS011;4135;49.184;9.722;2022-07-23T07:45:20;10.63;;;7.95;;
8187;SDS011;4135;49.184;9.722;2022-07-23T07:47:52;11.98;;;7.57;;
8187;SDS011;4135;49.184;9.722;2022-07-23T07:50:22;8.65;;;6.72;;
8187;SDS011;4135;49.184;9.722;2022-07-23T07:52:52;10.15;;;6.72;;
8187;SDS011;4135;49.184;9.722;2022-07-23T07:55:21;8.93;;;6.90;;
8187;SDS011;4135;49.184;9.722;2022-07-23T07:57:51;10.80;;;6.95;;
8187;SDS011;4135;49.184;9.722;2022-07-23T08:00:20;10.18;;;6.38;;
8187;SDS011;4135;49.184;9.722;2022-07-23T08:02:50;13.10;;;7.88;;
8187;SDS011;4135;49.184;9.722;2022-07-23T08:05:22;8.85;;;6.03;;
8187;SDS011;4135;49.184;9.722;2022-07-23T08:07:53;10.30;;;6.60;;
8187;SDS011;4135;49.184;9.722;2022-07-23T08:10:25;8.65;;;6.30;;
8187;SDS011;4135;49.184;9.722;2022-07-23T08:12:56;9.68;;;6.97;;
8187;SDS011;4135;49.184;9.722;2022-07-23T08:15:27;9.65;;;6.57;;
8187;SDS011;4135;49.184;9.722;2022-07-23T08:17:58;11.00;;;7.35;;
8187;SDS011;4135;49.184;9.722;2022-07-23T08:20:28;11.13;;;6.03;;
8187;SDS011;4135;49.184;9.722;2022-07-23T08:23:04;11.25;;;7.35;;
8187;SDS011;4135;49.184;9.722;2022-07-23T08:25:37;9.27;;;6.25;;
8187;SDS011;4135;49.184;9.722;2022-07-23T08:28:09;9.23;;;6.50;;
8187;SDS011;4135;49.184;9.722;2022-07-23T08:30:40;11.07;;;6.95;;
8187;SDS011;4135;49.184;9.722;2022-07-23T08:33:15;10.77;;;5.88;;
8187;SDS011;4135;49.184;9.722;2022-07-23T08:35:47;8.20;;;6.13;;
8187;SDS011;4135;49.184;9.722;2022-07-23T08:38:20;8.82;;;6.40;;
8187;SDS011;4135;49.184;9.722;2022-07-23T08:40:51;7.20;;;5.85;;
8187;SDS011;4135;49.184;9.722;2022-07-23T08:43:23;9.63;;;5.45;;
8187;SDS011;4135;49.184;9.722;2022-07-23T08:45:55;9.25;;;6.00;;
8187;SDS011;4135;49.184;9.722;2022-07-23T08:48:30;6.97;;;5.72;;
8187;SDS011;4135;49.184;9.722;2022-07-23T08:51:02;9.32;;;6.15;;
8187;SDS011;4135;49.184;9.722;2022-07-23T08:53:33;6.53;;;5.40;;
8187;SDS011;4135;49.184;9.722;2022-07-23T08:56:04;6.30;;;5.03;;
8187;SDS011;4135;49.184;9.722;2022-07-23T08:58:35;7.90;;;5.30;;
8187;SDS011;4135;49.184;9.722;2022-07-23T09:01:05;8.45;;;5.68;;
8187;SDS011;4135;49.184;9.722;2022-07-23T09:03:36;8.55;;;6.28;;
8187;SDS011;4135;49.184;9.722;2022-07-23T09:06:07;7.55;;;5.07;;
8187;SDS011;4135;49.184;9.722;2022-07-23T09:08:40;7.05;;;5.32;;
8187;SDS011;4135;49.184;9.722;2022-07-23T09:11:12;8.70;;;5.38;;
8187;SDS011;4135;49.184;9.722;2022-07-23T09:13:51;8.18;;;5.82;;
8187;SDS011;4135;49.184;9.722;2022-07-23T09:16:27;8.45;;;6.13;;
8187;SDS011;4135;49.184;9.722;2022-07-23T09:19:00;10.82;;;6.85;;
8187;SDS011;4135;49.184;9.722;2022-07-23T09:21:38;12.07;;;6.07;;
8187;SDS011;4135;49.184;9.722;2022-07-23T09:24:11;8.93;;;5.90;;
8187;SDS011;4135;49.184;9.722;2022-07-23T09:26:45;8.90;;;6.38;;
8187;SDS011;4135;49.184;9.722;2022-07-23T09:29:17;6.88;;;6.03;;
8187;SDS011;4135;49.184;9.722;2022-07-23T09:31:52;9.13;;;6.50;;
8187;SDS011;4135;49.184;9.722;2022-07-23T09:34:31;9.23;;;6.68;;
8187;SDS011;4135;49.184;9.722;2022-07-23T09:39:42;9.20;;;6.30;;
8187;SDS011;4135;49.184;9.722;2022-07-23T09:42:20;9.57;;;5.78;;
8187;SDS011;4135;49.184;9.722;2022-07-23T09:44:54;10.30;;;6.15;;
8187;SDS011;4135;49.184;9.722;2022-07-23T09:47:26;8.40;;;5.70;;
8187;SDS011;4135;49.184;9.722;2022-07-23T09:52:29;9.77;;;5.72;;
8187;SDS011;4135;49.184;9.722;2022-07-23T09:55:02;7.70;;;5.57;;
8187;SDS011;4135;49.184;9.722;2022-07-23T09:57:33;8.68;;;6.35;;
8187;SDS011;4135;49.184;9.722;2022-07-23T10:00:04;8.85;;;6.47;;
8187;SDS011;4135;49.184;9.722;2022-07-23T10:02:37;7.90;;;6.30;;
8187;SDS011;4135;49.184;9.722;2022-07-23T10:05:08;11.77;;;6.38;;
8187;SDS011;4135;49.184;9.722;2022-07-23T10:07:39;8.07;;;5.85;;
8187;SDS011;4135;49.184;9.722;2022-07-23T10:10:09;7.18;;;5.95;;
8187;SDS011;4135;49.184;9.722;2022-07-23T10:12:39;7.95;;;5.35;;
8187;SDS011;4135;49.184;9.722;2022-07-23T10:15:08;8.88;;;5.45;;
8187;SDS011;4135;49.184;9.722;2022-07-23T10:17:38;6.35;;;4.95;;
8187;SDS011;4135;49.184;9.722;2022-07-23T10:20:08;12.45;;;4.85;;
8187;SDS011;4135;49.184;9.722;2022-07-23T10:22:46;7.47;;;5.45;;
8187;SDS011;4135;49.184;9.722;2022-07-23T10:31:14;12.73;;;6.57;;
8187;SDS011;4135;49.184;9.722;2022-07-23T10:33:56;9.82;;;6.00;;
8187;SDS011;4135;49.184;9.722;2022-07-23T10:36:56;7.32;;;5.32;;
8187;SDS011;4135;49.184;9.722;2022-07-23T10:39:43;7.65;;;5.60;;
8187;SDS011;4135;49.184;9.722;2022-07-23T10:42:14;14.40;;;6.07;;
8187;SDS011;4135;49.184;9.722;2022-07-23T10:44:46;8.85;;;6.32;;
8187;SDS011;4135;49.184;9.722;2022-07-23T10:47:26;8.38;;;5.55;;
8187;SDS011;4135;49.184;9.722;2022-07-23T10:50:25;8.32;;;5.32;;
8187;SDS011;4135;49.184;9.722;2022-07-23T10:55:42;8.63;;;6.28;;
8187;SDS011;4135;49.184;9.722;2022-07-23T10:58:17;7.72;;;4.95;;
8187;SDS011;4135;49.184;9.722;2022-07-23T11:00:49;6.28;;;5.38;;
8187;SDS011;4135;49.184;9.722;2022-07-23T11:03:29;7.22;;;4.57;;
8187;SDS011;4135;49.184;9.722;2022-07-23T11:06:01;7.68;;;6.15;;
8187;SDS011;4135;49.184;9.722;2022-07-23T11:08:31;7.28;;;5.75;;
8187;SDS011;4135;49.184;9.722;2022-07-23T11:13:31;9.32;;;6.47;;
8187;SDS011;4135;49.184;9.722;2022-07-23T11:16:15;8.13;;;4.65;;
8187;SDS011;4135;49.184;9.722;2022-07-23T11:26:55;9.10;;;5.30;;
8187;SDS011;4135;49.184;9.722;2022-07-23T11:32:04;7.38;;;5.18;;
8187;SDS011;4135;49.184;9.722;2022-07-23T11:34:38;6.85;;;5.45;;
8187;SDS011;4135;49.184;9.722;2022-07-23T11:37:12;6.80;;;4.95;;
8187;SDS011;4135;49.184;9.722;2022-07-23T11:39:56;6.40;;;5.03;;
8187;SDS011;4135;49.184;9.722;2022-07-23T11:42:27;6.45;;;4.93;;
8187;SDS011;4135;49.184;9.722;2022-07-23T11:44:56;5.50;;;4.45;;
8187;SDS011;4135;49.184;9.722;2022-07-23T11:47:26;6.15;;;4.82;;
8187;SDS011;4135;49.184;9.722;2022-07-23T11:49:57;8.00;;;5.30;;
8187;SDS011;4135;49.184;9.722;2022-07-23T11:52:29;5.78;;;5.22;;
8187;SDS011;4135;49.184;9.722;2022-07-23T11:55:03;7.40;;;5.78;;
8187;SDS011;4135;49.184;9.722;2022-07-23T11:57:36;8.98;;;5.10;;
8187;SDS011;4135;49.184;9.722;2022-07-23T12:00:11;7.22;;;5.55;;
8187;SDS011;4135;49.184;9.722;2022-07-23T12:02:45;6.75;;;5.70;;
8187;SDS011;4135;49.184;9.722;2022-07-23T12:05:17;9.43;;;6.50;;
8187;SDS011;4135;49.184;9.722;2022-07-23T12:07:49;9.32;;;6.25;;
8187;SDS011;4135;49.184;9.722;2022-07-23T12:10:27;6.75;;;5.82;;
8187;SDS011;4135;49.184;9.722;2022-07-23T12:13:00;7.50;;;5.50;;
8187;SDS011;4135;49.184;9.722;2022-07-23T12:15:33;6.55;;;5.63;;
8187;SDS011;4135;49.184;9.722;2022-07-23T12:18:09;8.13;;;6.03;;
8187;SDS011;4135;49.184;9.722;2022-07-23T12:20:45;8.35;;;5.90;;
8187;SDS011;4135;49.184;9.722;2022-07-23T12:23:17;8.63;;;5.60;;
8187;SDS011;4135;49.184;9.722;2022-07-23T12:25:49;6.97;;;6.13;;
8187;SDS011;4135;49.184;9.722;2022-07-23T12:28:21;7.97;;;6.05;;
8187;SDS011;4135;49.184;9.722;2022-07-23T12:30:57;10.07;;;6.35;;
8187;SDS011;4135;49.184;9.722;2022-07-23T12:33:28;9.07;;;6.05;;
8187;SDS011;4135;49.184;9.722;2022-07-23T12:36:08;7.85;;;6.13;;
8187;SDS011;4135;49.184;9.722;2022-07-23T12:38:42;8.00;;;7.20;;
8187;SDS011;4135;49.184;9.722;2022-07-23T12:41:17;8.50;;;6.50;;
8187;SDS011;4135;49.184;9.722;2022-07-23T12:43:47;10.10;;;6.70;;
8187;SDS011;4135;49.184;9.722;2022-07-23T12:46:17;8.48;;;6.00;;
8187;SDS011;4135;49.184;9.722;2022-07-23T12:51:19;9.90;;;6.50;;
8187;SDS011;4135;49.184;9.722;2022-07-23T12:53:59;7.43;;;6.07;;
8187;SDS011;4135;49.184;9.722;2022-07-23T12:56:34;6.80;;;5.55;;
8187;SDS011;4135;49.184;9.722;2022-07-23T12:59:13;9.80;;;6.47;;
8187;SDS011;4135;49.184;9.722;2022-07-23T13:01:46;7.32;;;6.07;;
8187;SDS011;4135;49.184;9.722;2022-07-23T13:04:24;7.03;;;5.90;;
8187;SDS011;4135;49.184;9.722;2022-07-23T13:06:54;7.03;;;5.07;;
8187;SDS011;4135;49.184;9.722;2022-07-23T13:09:32;10.63;;;5.47;;
8187;SDS011;4135;49.184;9.722;2022-07-23T13:12:02;8.40;;;6.43;;
8187;SDS011;4135;49.184;9.722;2022-07-23T13:14:33;6.20;;;5.78;;
8187;SDS011;4135;49.184;9.722;2022-07-23T13:17:02;7.22;;;6.13;;
8187;SDS011;4135;49.184;9.722;2022-07-23T13:19:32;7.72;;;6.00;;
8187;SDS011;4135;49.184;9.722;2022-07-23T13:22:01;6.72;;;6.18;;
8187;SDS011;4135;49.184;9.722;2022-07-23T13:24:31;6.30;;;5.35;;
8187;SDS011;4135;49.184;9.722;2022-07-23T13:27:01;7.68;;;6.35;;
8187;SDS011;4135;49.184;9.722;2022-07-23T13:29:30;8.15;;;5.35;;
8187;SDS011;4135;49.184;9.722;2022-07-23T13:32:00;6.93;;;5.78;;
8187;SDS011;4135;49.184;9.722;2022-07-23T13:34:29;6.90;;;6.22;;
8187;SDS011;4135;49.184;9.722;2022-07-23T13:36:59;6.70;;;5.88;;
8187;SDS011;4135;49.184;9.722;2022-07-23T13:39:28;9.70;;;6.47;;
8187;SDS011;4135;49.184;9.722;2022-07-23T13:41:58;6.32;;;5.65;;
8187;SDS011;4135;49.184;9.722;2022-07-23T13:44:27;7.93;;;5.97;;
8187;SDS011;4135;49.184;9.722;2022-07-23T13:46:57;7.70;;;5.65;;
8187;SDS011;4135;49.184;9.722;2022-07-23T13:49:26;6.93;;;6.03;;
8187;SDS011;4135;49.184;9.722;2022-07-23T13:51:56;7.13;;;6.15;;
8187;SDS011;4135;49.184;9.722;2022-07-23T13:54:26;7.60;;;5.72;;
8187;SDS011;4135;49.184;9.722;2022-07-23T13:56:56;7.07;;;5.55;;
8187;SDS011;4135;49.184;9.722;2022-07-23T13:59:26;6.45;;;5.22;;
8187;SDS011;4135;49.184;9.722;2022-07-23T14:01:55;7.88;;;5.32;;
8187;SDS011;4135;49.184;9.722;2022-07-23T14:04:25;7.00;;;5.57;;
8187;SDS011;4135;49.184;9.722;2022-07-23T14:06:55;8.57;;;5.57;;
8187;SDS011;4135;49.184;9.722;2022-07-23T14:09:24;6.38;;;5.47;;
8187;SDS011;4135;49.184;9.722;2022-07-23T14:11:54;17.42;;;5.68;;
8187;SDS011;4135;49.184;9.722;2022-07-23T14:14:24;6.45;;;5.70;;
8187;SDS011;4135;49.184;9.722;2022-07-23T14:16:54;5.47;;;4.80;;
8187;SDS011;4135;49.184;9.722;2022-07-23T14:19:24;7.75;;;5.43;;
8187;SDS011;4135;49.184;9.722;2022-07-23T14:21:54;8.40;;;5.28;;
8187;SDS011;4135;49.184;9.722;2022-07-23T14:24:23;11.30;;;6.60;;
8187;SDS011;4135;49.184;9.722;2022-07-23T14:26:53;7.15;;;6.18;;
8187;SDS011;4135;49.184;9.722;2022-07-23T14:29:22;5.88;;;5.30;;
8187;SDS011;4135;49.184;9.722;2022-07-23T14:31:52;10.70;;;5.22;;
8187;SDS011;4135;49.184;9.722;2022-07-23T14:34:21;7.72;;;5.15;;
8187;SDS011;4135;49.184;9.722;2022-07-23T14:36:51;6.72;;;6.07;;
8187;SDS011;4135;49.184;9.722;2022-07-23T14:39:21;6.63;;;5.43;;
8187;SDS011;4135;49.184;9.722;2022-07-23T14:41:51;7.90;;;5.13;;
8187;SDS011;4135;49.184;9.722;2022-07-23T14:44:20;8.15;;;5.05;;
8187;SDS011;4135;49.184;9.722;2022-07-23T14:46:50;7.30;;;5.20;;
8187;SDS011;4135;49.184;9.722;2022-07-23T14:49:19;4.78;;;4.47;;
8187;SDS011;4135;49.184;9.722;2022-07-23T14:51:49;10.38;;;5.03;;
8187;SDS011;4135;49.184;9.722;2022-07-23T14:54:18;7.05;;;4.40;;
8187;SDS011;4135;49.184;9.722;2022-07-23T14:56:48;6.18;;;5.10;;
8187;SDS011;4135;49.184;9.722;2022-07-23T14:59:18;8.25;;;4.80;;
8187;SDS011;4135;49.184;9.722;2022-07-23T15:01:47;7.47;;;4.95;;
8187;SDS011;4135;49.184;9.722;2022-07-23T15:04:18;5.03;;;4.55;;
8187;SDS011;4135;49.184;9.722;2022-07-23T15:06:47;6.25;;;4.43;;
8187;SDS011;4135;49.184;9.722;2022-07-23T15:09:17;8.90;;;5.30;;
8187;SDS011;4135;49.184;9.722;2022-07-23T15:11:47;6.05;;;5.15;;
8187;SDS011;4135;49.184;9.722;2022-07-23T15:14:16;6.25;;;5.00;;
8187;SDS011;4135;49.184;9.722;2022-07-23T15:16:46;5.22;;;4.38;;
8187;SDS011;4135;49.184;9.722;2022-07-23T15:19:15;6.25;;;4.93;;
8187;SDS011;4135;49.184;9.722;2022-07-23T15:21:45;5.25;;;4.57;;
8187;SDS011;4135;49.184;9.722;2022-07-23T15:24:14;8.23;;;6.00;;
8187;SDS011;4135;49.184;9.722;2022-07-23T15:26:44;13.05;;;4.88;;
8187;SDS011;4135;49.184;9.722;2022-07-23T15:29:13;6.18;;;4.55;;
8187;SDS011;4135;49.184;9.722;2022-07-23T15:31:43;8.07;;;5.53;;
8187;SDS011;4135;49.184;9.722;2022-07-23T15:34:12;7.82;;;5.80;;
8187;SDS011;4135;49.184;9.722;2022-07-23T15:36:43;8.18;;;5.60;;
8187;SDS011;4135;49.184;9.722;2022-07-23T15:39:13;7.43;;;5.35;;
8187;SDS011;4135;49.184;9.722;2022-07-23T15:41:42;6.78;;;5.70;;
8187;SDS011;4135;49.184;9.722;2022-07-23T15:44:11;7.05;;;5.43;;
8187;SDS011;4135;49.184;9.722;2022-07-23T15:46:41;6.60;;;5.20;;
8187;SDS011;4135;49.184;9.722;2022-07-23T15:49:11;7.85;;;5.45;;
8187;SDS011;4135;49.184;9.722;2022-07-23T15:51:42;6.90;;;5.40;;
8187;SDS011;4135;49.184;9.722;2022-07-23T15:54:12;7.28;;;6.03;;
8187;SDS011;4135;49.184;9.722;2022-07-23T15:56:41;7.07;;;6.03;;
8187;SDS011;4135;49.184;9.722;2022-07-23T15:59:11;6.43;;;5.20;;
8187;SDS011;4135;49.184;9.722;2022-07-23T16:01:40;8.50;;;6.18;;
8187;SDS011;4135;49.184;9.722;2022-07-23T16:04:10;8.00;;;5.97;;